Acton, MA

5:58 PM EDT on August 27, 2014 (GMT -0400)
Lawrence Municipal | Change Station
CLOSE
Current Station
Airport
Location: Lawrence,
Elevation: 148 ft
Nearby Weather Stations

Elev 148 ft 42.72 °N, 71.12 °W | Updated 4 minutes ago

Partly Cloudy
Partly Cloudy
85 °F
Feels Like 88 °F
N
9
Wind Variable Wind from WSW

Today
High -- | Low -- °F
--% Chance of Precip.
Yesterday
High -- | Low -- °F
Precip. -- in
6:05 AM 7:28 PM
Waxing Crescent, 5% visible
Pressure 29.86 in
Visibility 10.0 miles
Clouds Few 4700 ft
Heat Index 88 °F
Dew Point 67 °F
Humidity 55%
Rainfall 0.00 in
Snow Depth Not available.
UV 1 out of 12
Pollen 10.20 out of 12
Air Quality Not available.
Flu Activity Not available.
METAR KLWM 272154Z 25008KT 10SM FEW047 29/19 A2986 RMK AO2 LTG DSNT SW SLP109 T02940194

More Conditions Fewer Conditions

Pressure 29.86 in
Visibility 10.0 miles
Clouds Few 4700 ft
Heat Index 88 °F
Dew Point 67 °F
Humidity 55%
Rainfall 0.00 in
Snow Depth Not available.
UV 1 out of 12
Pollen 10.20 out of 12
Air Quality Not available.
Flu Activity Not available.
METAR KLWM 272154Z 25008KT 10SM FEW047 29/19 A2986 RMK AO2 LTG DSNT SW SLP109 T02940194

More Conditions Fewer Conditions

10-Day Weather Forecast

Almanac

Astronomy

Aug. 27, 2014 Rise Set
Actual Time 6:05 AM EDT 7:28 PM EDT
Civil Twilight 5:36 AM EDT 7:57 PM EDT
Nautical Twilight 5:00 AM EDT 8:32 PM EDT
Astronomical Twilight 4:23 AM EDT 9:09 PM EDT
Moon 8:01 AM EDT 8:15 PM EDT
Length of Visible Light 14h 21m
Length of Day
13h 22m
Tomorrow will be 2m 43s shorter.
Waxing Crescent, 5% of the Moon is Illuminated
Today
Waxing Crescent
Sep 2
First Quarter
Sep 8
Full
Sep 15
Last Quarter
Sep 24
New

Today's Extremes

State Highs State Lows

Community

WunderPhotos

Upload Photos

1,747,791 photos uploaded!

Nearby

Air Quality

  Air Quality AQ Index Pollutant
Wednesday Good
PM2.5
Thursday Good
PM2.5
Thursday Good
OZONE

Snow Depth

Station Depth Elevation
No new snow has been reported.

Earthquake Activity

City Distance Mag. Time & Date
No recent earthquake activity has been reported nearby.
Minimum magnitude displayed is 2.5.

Coastal Water Temperatures

Place Temperature
Boston, MA 69.1 °F
Providence, RI 73.0 °F
Fall River, MA 73.9 °F
Conimicut Light, RI 72.0 °F

Nearby Weather Stations